createdAt,value
2022-12-18T00:00:33.767Z,8.70
2022-12-18T00:03:10.133Z,6.50
2022-12-18T00:05:54.513Z,6.20
2022-12-18T00:08:31.786Z,8.00
2022-12-18T00:11:16.234Z,6.20
2022-12-18T00:13:53.542Z,7.30
2022-12-18T00:16:31.370Z,6.30
2022-12-18T00:19:14.336Z,8.70
2022-12-18T00:21:52.266Z,8.90
2022-12-18T00:24:29.783Z,7.10
2022-12-18T00:27:06.522Z,6.40
2022-12-18T00:29:43.462Z,7.30
2022-12-18T00:32:19.597Z,9.80
2022-12-18T00:34:56.116Z,6.40
2022-12-18T00:37:32.790Z,6.90
2022-12-18T00:40:14.428Z,6.80
2022-12-18T00:43:01.433Z,9.90
2022-12-18T00:45:38.221Z,9.80
2022-12-18T00:48:15.837Z,6.90
2022-12-18T00:50:53.206Z,6.80
2022-12-18T00:53:29.317Z,8.30
2022-12-18T00:56:06.348Z,6.30
2022-12-18T00:58:46.867Z,6.90
2022-12-18T01:01:24.670Z,6.80
2022-12-18T01:04:01.090Z,6.80
2022-12-18T01:06:37.600Z,6.90
2022-12-18T01:09:13.935Z,11.20
2022-12-18T01:11:50.496Z,16.30
2022-12-18T01:14:26.932Z,10.90
2022-12-18T01:17:04.903Z,9.50
2022-12-18T01:19:43.837Z,10.70
2022-12-18T01:22:20.819Z,8.50
2022-12-18T01:24:57.985Z,8.80
2022-12-18T01:27:34.176Z,9.70
2022-12-18T01:30:15.625Z,9.40
2022-12-18T01:33:30.034Z,9.60
2022-12-18T01:36:06.985Z,9.40
2022-12-18T01:38:43.427Z,11.30
2022-12-18T01:41:21.941Z,11.10
2022-12-18T01:44:00.779Z,12.90
2022-12-18T01:46:37.532Z,9.00
2022-12-18T01:49:14.496Z,10.50
2022-12-18T01:51:51.106Z,9.00
2022-12-18T01:54:28.678Z,8.40
2022-12-18T01:57:05.667Z,8.60
2022-12-18T01:59:44.704Z,11.50
2022-12-18T02:02:22.683Z,12.60
2022-12-18T02:04:59.629Z,9.40
2022-12-18T02:07:46.902Z,8.40
2022-12-18T02:10:32.953Z,9.90
2022-12-18T02:13:23.670Z,7.90
2022-12-18T02:16:16.875Z,8.10
2022-12-18T02:19:00.767Z,7.90
2022-12-18T02:21:51.866Z,8.00
2022-12-18T02:24:42.846Z,7.20
2022-12-18T02:27:21.441Z,8.50
2022-12-18T02:30:01.091Z,7.20
2022-12-18T02:32:43.216Z,7.80
2022-12-18T02:35:25.426Z,6.50
2022-12-18T02:38:05.585Z,6.40
2022-12-18T02:40:46.936Z,8.90
2022-12-18T02:43:25.845Z,9.10
2022-12-18T02:46:17.872Z,9.80
2022-12-18T02:48:58.149Z,9.70
2022-12-18T02:51:48.726Z,13.00
2022-12-18T02:54:47.517Z,7.60
2022-12-18T02:57:36.885Z,7.80
2022-12-18T03:00:20.276Z,10.60
2022-12-18T03:03:03.144Z,8.50
2022-12-18T03:05:46.720Z,8.20
2022-12-18T03:08:29.564Z,10.80
2022-12-18T03:11:12.328Z,9.70
2022-12-18T03:13:55.383Z,10.00
2022-12-18T03:16:35.018Z,8.50
2022-12-18T03:19:19.335Z,7.90
2022-12-18T03:22:04.516Z,7.50
2022-12-18T03:24:56.144Z,8.90
2022-12-18T03:27:36.554Z,8.20
2022-12-18T03:30:19.590Z,11.70
2022-12-18T03:33:02.659Z,8.30
2022-12-18T03:35:46.014Z,8.70
2022-12-18T03:38:23.809Z,11.50
2022-12-18T03:41:18.055Z,7.10
2022-12-18T03:44:30.994Z,10.60
2022-12-18T03:47:16.970Z,9.50
2022-12-18T03:50:12.288Z,8.20
2022-12-18T03:52:55.817Z,7.50
2022-12-18T03:55:37.420Z,10.60
2022-12-18T03:58:20.326Z,9.00
2022-12-18T04:01:08.775Z,12.30
2022-12-18T04:03:48.561Z,9.10
2022-12-18T04:06:28.386Z,8.30
2022-12-18T04:09:05.463Z,10.50
2022-12-18T04:11:46.672Z,7.90
2022-12-18T04:14:24.805Z,10.90
2022-12-18T04:17:04.153Z,12.90
2022-12-18T04:19:42.396Z,11.60
2022-12-18T04:22:21.221Z,8.90
2022-12-18T04:25:00.499Z,9.30
2022-12-18T04:27:43.002Z,13.60
2022-12-18T04:30:23.311Z,10.00
2022-12-18T04:33:00.119Z,10.00
2022-12-18T04:35:36.969Z,9.70
2022-12-18T04:38:14.691Z,12.90
2022-12-18T04:40:52.360Z,8.80
2022-12-18T04:43:34.066Z,10.50
2022-12-18T04:46:15.048Z,11.40
2022-12-18T04:48:54.920Z,11.30
2022-12-18T04:51:31.197Z,13.00
2022-12-18T04:54:09.082Z,8.80
2022-12-18T04:56:45.964Z,8.40
2022-12-18T04:59:24.374Z,8.00
2022-12-18T05:02:01.615Z,8.10
2022-12-18T05:04:38.723Z,8.60
2022-12-18T05:07:16.328Z,10.00
2022-12-18T05:09:53.554Z,8.30
2022-12-18T05:12:30.675Z,8.60
2022-12-18T05:15:14.985Z,10.40
2022-12-18T05:17:52.216Z,11.60
2022-12-18T05:20:29.374Z,12.80
2022-12-18T05:23:06.507Z,11.90
2022-12-18T05:25:43.037Z,11.40
2022-12-18T05:28:20.757Z,12.00
2022-12-18T05:30:59.989Z,10.70
2022-12-18T05:33:38.871Z,9.70
2022-12-18T05:36:16.425Z,8.90
2022-12-18T05:38:53.701Z,8.70
2022-12-18T05:41:31.843Z,8.40
2022-12-18T05:44:09.443Z,8.90
2022-12-18T05:46:45.817Z,8.60
2022-12-18T05:49:22.627Z,8.60
2022-12-18T05:51:59.614Z,7.40
2022-12-18T05:54:38.309Z,9.50
2022-12-18T05:57:14.316Z,7.60
2022-12-18T05:59:51.560Z,11.30
2022-12-18T06:02:27.803Z,10.10
2022-12-18T06:05:04.594Z,10.40
2022-12-18T06:07:41.180Z,10.10
2022-12-18T06:10:19.125Z,11.00
2022-12-18T06:12:56.250Z,9.50
2022-12-18T06:15:32.848Z,9.40
2022-12-18T06:18:11.933Z,9.60
2022-12-18T06:20:49.563Z,8.00
2022-12-18T06:23:26.085Z,7.50
2022-12-18T06:26:06.531Z,15.70
2022-12-18T06:28:44.572Z,9.00
2022-12-18T06:31:21.282Z,8.70
2022-12-18T06:33:57.614Z,11.30
2022-12-18T06:36:36.627Z,8.10
2022-12-18T06:39:14.785Z,9.00
2022-12-18T06:41:52.428Z,8.10
2022-12-18T06:44:30.087Z,9.70
2022-12-18T06:47:07.469Z,10.20
2022-12-18T06:49:44.134Z,13.00
2022-12-18T06:52:21.666Z,12.70
2022-12-18T06:54:58.757Z,9.30
2022-12-18T06:57:35.385Z,11.30
2022-12-18T07:00:17.712Z,9.90
2022-12-18T07:02:54.526Z,9.10
2022-12-18T07:05:32.068Z,9.80
2022-12-18T07:08:09.543Z,13.40
2022-12-18T07:10:56.094Z,13.60
2022-12-18T07:13:33.619Z,13.10
2022-12-18T07:16:24.229Z,13.30
2022-12-18T07:19:04.012Z,8.90
2022-12-18T07:21:40.589Z,9.70
2022-12-18T07:24:18.438Z,8.90
2022-12-18T07:26:56.480Z,10.90
2022-12-18T07:29:34.028Z,10.30
2022-12-18T07:32:12.712Z,11.40
2022-12-18T07:34:50.736Z,10.60
2022-12-18T07:37:27.572Z,11.80
2022-12-18T07:40:04.198Z,12.50
2022-12-18T07:42:41.296Z,10.80
2022-12-18T07:45:18.579Z,10.10
2022-12-18T07:47:54.960Z,10.50
2022-12-18T07:50:32.207Z,16.60
2022-12-18T07:53:08.964Z,19.90
2022-12-18T07:56:17.862Z,21.50
2022-12-18T07:58:42.844Z,16.80
2022-12-18T08:01:21.282Z,19.50
2022-12-18T08:03:58.447Z,13.80
2022-12-18T08:06:34.784Z,14.30
2022-12-18T08:09:13.682Z,10.70
2022-12-18T08:11:50.909Z,13.10
2022-12-18T08:14:27.728Z,9.70
2022-12-18T08:17:04.779Z,21.30
2022-12-18T08:19:42.029Z,20.80
2022-12-18T08:22:19.630Z,15.00
2022-12-18T08:24:57.307Z,10.60
2022-12-18T08:27:33.648Z,11.70
2022-12-18T08:30:16.828Z,11.10
2022-12-18T08:32:53.874Z,14.50
2022-12-18T08:35:35.921Z,15.20
2022-12-18T08:38:14.735Z,13.20
2022-12-18T08:40:51.712Z,12.70
2022-12-18T08:43:46.027Z,12.20
2022-12-18T08:46:28.635Z,13.20
2022-12-18T08:49:05.659Z,12.20
2022-12-18T08:51:42.612Z,11.20
2022-12-18T08:54:20.258Z,13.80
2022-12-18T08:56:57.386Z,16.60
2022-12-18T08:59:34.751Z,21.80
2022-12-18T09:02:12.430Z,19.80
2022-12-18T09:04:56.949Z,17.60
2022-12-18T09:07:34.630Z,15.40
2022-12-18T09:10:14.600Z,14.30
2022-12-18T09:12:51.900Z,14.70
2022-12-18T09:15:29.837Z,16.90
2022-12-18T09:18:07.197Z,14.80
2022-12-18T09:20:43.045Z,52.40
2022-12-18T09:23:20.138Z,82.50
2022-12-18T09:26:02.044Z,104.60
2022-12-18T09:28:39.817Z,43.10
2022-12-18T09:31:22.562Z,18.50
2022-12-18T09:34:00.911Z,13.00
2022-12-18T09:36:37.961Z,11.60
2022-12-18T09:39:14.900Z,12.70
2022-12-18T09:41:58.603Z,13.20
2022-12-18T09:44:45.102Z,12.70
2022-12-18T09:47:31.619Z,14.40
2022-12-18T09:50:30.824Z,12.50
2022-12-18T09:53:18.051Z,12.10
2022-12-18T09:55:58.425Z,12.00
2022-12-18T09:58:43.660Z,11.10
2022-12-18T10:01:31.988Z,12.20
2022-12-18T10:04:17.895Z,12.90
2022-12-18T10:07:08.957Z,11.20
2022-12-18T10:09:58.091Z,12.40
2022-12-18T10:12:46.151Z,12.60
2022-12-18T10:15:34.834Z,11.60
2022-12-18T10:18:36.331Z,11.30
2022-12-18T10:21:22.715Z,14.90
2022-12-18T10:24:16.810Z,12.80
2022-12-18T10:26:53.879Z,13.80
2022-12-18T10:29:33.081Z,12.90
2022-12-18T10:32:11.031Z,12.70
2022-12-18T10:34:59.845Z,14.50
2022-12-18T10:37:38.473Z,14.80
2022-12-18T10:40:22.617Z,14.90
2022-12-18T10:43:17.385Z,14.30
2022-12-18T10:46:20.375Z,11.90
2022-12-18T10:49:04.165Z,13.90
2022-12-18T10:51:43.195Z,12.20
2022-12-18T10:54:25.266Z,13.00
2022-12-18T10:57:36.860Z,12.40
2022-12-18T11:00:37.376Z,13.40
2022-12-18T11:03:40.058Z,11.50
2022-12-18T11:06:19.787Z,13.10
2022-12-18T11:09:13.863Z,13.00
2022-12-18T11:11:59.152Z,13.10
2022-12-18T11:14:47.416Z,11.90
2022-12-18T11:17:36.956Z,13.90
2022-12-18T11:20:31.151Z,14.00
2022-12-18T11:23:16.240Z,13.90
2022-12-18T11:26:02.301Z,11.30
2022-12-18T11:28:45.699Z,13.10
2022-12-18T11:31:34.996Z,15.40
2022-12-18T11:34:29.159Z,11.40
2022-12-18T11:37:09.351Z,14.70
2022-12-18T11:39:50.533Z,9.90
2022-12-18T11:42:36.126Z,10.30
2022-12-18T11:45:43.029Z,12.30
2022-12-18T11:48:26.405Z,13.70
2022-12-18T11:51:06.390Z,14.40
2022-12-18T11:53:42.704Z,11.80
2022-12-18T11:56:37.507Z,14.30
2022-12-18T11:59:29.531Z,14.90
2022-12-18T12:02:32.185Z,14.10
2022-12-18T12:05:33.415Z,12.50
2022-12-18T12:08:24.416Z,12.90
2022-12-18T12:11:15.268Z,12.60
2022-12-18T12:14:05.428Z,14.40
2022-12-18T12:16:53.137Z,13.30
2022-12-18T12:19:48.120Z,12.80
2022-12-18T12:22:41.880Z,12.50
2022-12-18T12:25:37.236Z,12.40
2022-12-18T12:28:30.712Z,12.20
2022-12-18T12:31:23.406Z,12.30
2022-12-18T12:34:07.874Z,12.60
2022-12-18T12:37:02.957Z,13.00
2022-12-18T12:39:45.856Z,12.90
2022-12-18T12:42:51.279Z,11.40
2022-12-18T12:45:38.388Z,12.60
2022-12-18T12:48:27.521Z,13.80
2022-12-18T12:51:10.764Z,15.50
2022-12-18T12:53:50.305Z,11.90
2022-12-18T12:56:29.639Z,14.70
2022-12-18T12:59:25.875Z,15.70
2022-12-18T13:02:17.492Z,17.00
2022-12-18T13:05:00.893Z,15.10
2022-12-18T13:07:49.859Z,12.00
2022-12-18T13:10:43.738Z,11.00
2022-12-18T13:13:23.770Z,12.40
2022-12-18T13:16:26.893Z,11.40
2022-12-18T13:19:04.838Z,14.10
2022-12-18T13:21:42.173Z,13.30
2022-12-18T13:24:34.092Z,13.10
2022-12-18T13:27:59.106Z,11.80
2022-12-18T13:30:59.946Z,12.80
2022-12-18T13:36:48.227Z,11.30
2022-12-18T13:39:40.293Z,11.20
2022-12-18T13:43:05.182Z,11.20
2022-12-18T13:46:21.881Z,11.20
2022-12-18T13:49:09.801Z,11.50
2022-12-18T13:51:51.756Z,12.10
2022-12-18T13:54:38.227Z,9.90
2022-12-18T13:57:36.429Z,9.10
2022-12-18T14:00:34.927Z,12.10
2022-12-18T14:03:27.458Z,11.80
2022-12-18T14:06:18.522Z,12.00
2022-12-18T14:08:56.626Z,12.60
2022-12-18T14:11:34.218Z,11.00
2022-12-18T14:14:12.538Z,11.80
2022-12-18T14:16:50.099Z,11.20
2022-12-18T14:19:28.286Z,11.20
2022-12-18T14:22:05.830Z,10.80
2022-12-18T14:24:42.718Z,12.80
2022-12-18T14:27:30.961Z,11.40
2022-12-18T14:30:21.081Z,10.70
2022-12-18T14:33:13.929Z,10.20
2022-12-18T14:36:04.240Z,10.80
2022-12-18T14:38:44.521Z,13.40
2022-12-18T14:41:23.446Z,13.20
2022-12-18T14:44:08.590Z,11.60
2022-12-18T14:46:49.383Z,14.10
2022-12-18T14:49:34.321Z,11.40
2022-12-18T14:52:21.337Z,12.50
2022-12-18T14:54:58.947Z,14.00
2022-12-18T14:57:44.627Z,15.00
2022-12-18T15:00:26.285Z,13.20
2022-12-18T15:03:04.518Z,12.90
2022-12-18T15:05:42.267Z,28.90
2022-12-18T15:08:50.299Z,36.80
2022-12-18T15:11:49.842Z,22.00
2022-12-18T15:14:43.707Z,14.90
2022-12-18T15:17:27.919Z,13.30
2022-12-18T15:20:13.740Z,11.90
2022-12-18T15:22:53.463Z,13.20
2022-12-18T15:25:39.696Z,13.30
2022-12-18T15:28:29.449Z,11.90
2022-12-18T15:31:27.425Z,12.00
2022-12-18T15:34:24.087Z,12.50
2022-12-18T15:37:02.161Z,12.80
2022-12-18T15:39:39.150Z,13.20
2022-12-18T15:42:38.580Z,12.80
2022-12-18T15:45:19.477Z,12.70
2022-12-18T15:47:57.038Z,14.70
2022-12-18T15:50:34.641Z,14.10
2022-12-18T15:53:12.760Z,13.90
2022-12-18T15:56:06.741Z,17.30
2022-12-18T15:58:44.451Z,17.90
2022-12-18T16:01:23.086Z,18.60
2022-12-18T16:04:00.380Z,16.80
2022-12-18T16:07:05.310Z,15.10
2022-12-18T16:09:34.509Z,14.10
2022-12-18T16:12:18.799Z,16.60
2022-12-18T16:14:55.919Z,13.40
2022-12-18T16:17:32.771Z,15.00
2022-12-18T16:20:16.055Z,16.90
2022-12-18T16:22:53.275Z,13.10
2022-12-18T16:25:31.587Z,18.70
2022-12-18T16:28:08.458Z,15.40
2022-12-18T16:30:45.203Z,16.80
2022-12-18T16:33:21.445Z,25.60
2022-12-18T16:36:02.266Z,22.00
2022-12-18T16:38:39.558Z,20.40
2022-12-18T16:41:35.832Z,20.40
2022-12-18T16:44:13.467Z,14.60
2022-12-18T16:46:50.167Z,16.60
2022-12-18T16:49:28.383Z,15.30
2022-12-18T16:52:10.220Z,14.20
2022-12-18T16:54:48.034Z,15.10
2022-12-18T16:57:26.744Z,16.70
2022-12-18T17:00:05.793Z,18.60
2022-12-18T17:02:42.846Z,14.70
2022-12-18T17:05:20.934Z,14.60
2022-12-18T17:07:58.207Z,19.00
2022-12-18T17:10:34.758Z,18.00
2022-12-18T17:13:12.113Z,18.90
2022-12-18T17:15:49.682Z,16.00
2022-12-18T17:18:27.273Z,15.80
2022-12-18T17:21:19.811Z,18.50
2022-12-18T17:24:02.424Z,13.10
2022-12-18T17:26:45.381Z,19.20
2022-12-18T17:29:25.387Z,15.00
2022-12-18T17:32:03.437Z,16.40
2022-12-18T17:34:40.246Z,14.60
2022-12-18T17:37:20.668Z,14.50
2022-12-18T17:39:57.443Z,20.70
2022-12-18T17:42:36.286Z,19.40
2022-12-18T17:45:18.804Z,16.90
2022-12-18T17:47:59.817Z,21.70
2022-12-18T17:50:37.278Z,18.70
2022-12-18T17:53:15.018Z,17.30
2022-12-18T17:55:59.706Z,14.90
2022-12-18T17:58:38.752Z,17.50
2022-12-18T18:01:19.558Z,18.80
2022-12-18T18:03:57.025Z,21.50
2022-12-18T18:06:34.693Z,15.20
2022-12-18T18:09:17.117Z,16.70
2022-12-18T18:12:11.214Z,21.90
2022-12-18T18:14:48.023Z,23.00
2022-12-18T18:17:25.582Z,19.20
2022-12-18T18:20:03.036Z,19.10
2022-12-18T18:22:40.404Z,20.40
2022-12-18T18:25:17.105Z,21.80
2022-12-18T18:27:55.124Z,21.90
2022-12-18T18:30:31.831Z,23.30
2022-12-18T18:33:12.028Z,23.30
2022-12-18T18:35:54.339Z,26.90
2022-12-18T18:38:29.874Z,21.50
2022-12-18T18:41:10.828Z,23.40
2022-12-18T18:43:47.633Z,35.60
2022-12-18T18:46:24.847Z,27.30
2022-12-18T18:49:02.385Z,36.30
2022-12-18T18:51:39.297Z,34.50
2022-12-18T18:54:16.466Z,32.10
2022-12-18T18:57:19.314Z,26.20
2022-12-18T18:59:51.104Z,22.70
2022-12-18T19:02:28.428Z,21.30
2022-12-18T19:05:05.673Z,19.50
2022-12-18T19:07:42.409Z,22.60
2022-12-18T19:10:21.342Z,23.50
2022-12-18T19:13:15.423Z,28.20
2022-12-18T19:15:53.080Z,19.00
2022-12-18T19:18:30.455Z,27.00
2022-12-18T19:21:10.413Z,20.10
2022-12-18T19:23:47.659Z,18.20
2022-12-18T19:26:27.802Z,21.20
2022-12-18T19:29:10.974Z,19.40
2022-12-18T19:31:47.547Z,22.90
2022-12-18T19:34:24.299Z,23.80
2022-12-18T19:37:02.063Z,20.40
2022-12-18T19:39:39.299Z,22.30
2022-12-18T19:42:21.448Z,24.20
2022-12-18T19:45:02.194Z,23.40
2022-12-18T19:47:39.849Z,26.60
2022-12-18T19:50:19.074Z,20.50
2022-12-18T19:52:56.742Z,25.30
2022-12-18T19:55:33.966Z,21.40
2022-12-18T19:58:10.757Z,19.50
2022-12-18T20:00:47.065Z,21.30
2022-12-18T20:03:42.245Z,17.30
2022-12-18T20:06:27.838Z,17.40
2022-12-18T20:09:07.196Z,25.30
2022-12-18T20:11:43.552Z,27.70
2022-12-18T20:14:23.485Z,22.60
2022-12-18T20:17:01.119Z,16.80
2022-12-18T20:19:38.636Z,20.60
2022-12-18T20:22:15.469Z,19.10
2022-12-18T20:24:52.707Z,25.00
2022-12-18T20:27:28.612Z,22.00
2022-12-18T20:30:05.995Z,23.40
2022-12-18T20:32:43.748Z,25.00
2022-12-18T20:35:21.421Z,23.00
2022-12-18T20:37:59.333Z,21.20
2022-12-18T20:40:37.919Z,23.00
2022-12-18T20:43:17.385Z,23.40
2022-12-18T20:45:55.035Z,18.90
2022-12-18T20:48:32.653Z,19.00
2022-12-18T20:51:13.104Z,14.10
2022-12-18T20:53:50.291Z,20.20
2022-12-18T20:56:27.437Z,21.90
2022-12-18T20:59:05.690Z,19.40
2022-12-18T21:01:45.247Z,26.40
2022-12-18T21:04:27.053Z,23.60
2022-12-18T21:07:04.054Z,23.70
2022-12-18T21:09:41.201Z,21.40
2022-12-18T21:12:45.293Z,22.10
2022-12-18T21:15:29.378Z,21.20
2022-12-18T21:18:06.785Z,16.50
2022-12-18T21:20:44.140Z,17.60
2022-12-18T21:23:22.399Z,20.40
2022-12-18T21:26:17.100Z,20.20
2022-12-18T21:28:57.485Z,18.90
2022-12-18T21:31:39.768Z,18.80
2022-12-18T21:34:21.427Z,27.50
2022-12-18T21:36:59.984Z,31.10
2022-12-18T21:39:37.929Z,24.80
2022-12-18T21:42:31.325Z,24.50
2022-12-18T21:45:10.172Z,19.70
2022-12-18T21:47:47.604Z,19.50
2022-12-18T21:50:25.780Z,20.40
2022-12-18T21:53:03.424Z,20.70
2022-12-18T21:55:40.080Z,19.90
2022-12-18T21:58:16.987Z,15.90
2022-12-18T22:00:54.443Z,18.10
2022-12-18T22:03:31.667Z,18.10
2022-12-18T22:06:10.286Z,17.80
2022-12-18T22:08:47.886Z,17.10
2022-12-18T22:11:25.234Z,25.20
2022-12-18T22:14:02.304Z,22.90
2022-12-18T22:16:39.503Z,23.90
2022-12-18T22:19:17.069Z,24.50
2022-12-18T22:22:31.528Z,24.60
2022-12-18T22:25:46.149Z,22.60
2022-12-18T22:28:53.303Z,26.70
2022-12-18T22:31:30.624Z,27.90
2022-12-18T22:34:08.502Z,19.90
2022-12-18T22:36:47.557Z,18.50
2022-12-18T22:39:25.407Z,20.20
2022-12-18T22:42:02.693Z,18.60
2022-12-18T22:44:39.948Z,19.20
2022-12-18T22:47:19.620Z,18.00
2022-12-18T22:49:56.773Z,25.80
2022-12-18T22:52:34.245Z,25.10
2022-12-18T22:55:13.164Z,24.20
2022-12-18T22:57:55.054Z,24.30
2022-12-18T23:00:32.084Z,23.40
2022-12-18T23:03:09.935Z,22.30
2022-12-18T23:05:48.667Z,17.00
2022-12-18T23:08:27.926Z,17.00
2022-12-18T23:11:07.124Z,16.50
2022-12-18T23:13:43.788Z,16.90
2022-12-18T23:16:24.128Z,18.60
2022-12-18T23:19:05.939Z,17.80
2022-12-18T23:21:43.393Z,20.20
2022-12-18T23:24:20.522Z,18.90
2022-12-18T23:26:57.703Z,17.30
2022-12-18T23:29:34.959Z,20.90
2022-12-18T23:32:12.570Z,18.00
2022-12-18T23:34:50.189Z,19.40
2022-12-18T23:37:57.014Z,20.80
2022-12-18T23:40:25.888Z,14.40
2022-12-18T23:43:04.590Z,13.50
2022-12-18T23:45:45.562Z,13.70
2022-12-18T23:48:22.352Z,15.60
2022-12-18T23:50:59.936Z,16.00
2022-12-18T23:53:37.206Z,12.70
2022-12-18T23:56:16.937Z,13.40
2022-12-18T23:58:54.030Z,12.10
